sensor_id;sensor_type;location;lat;lon;timestamp;temperature;humidity
17599;DHT22;8918;52.092;5.232;2023-03-31T00:01:57;10.50;99.90
17599;DHT22;8918;52.092;5.232;2023-03-31T00:04:23;10.50;99.90
17599;DHT22;8918;52.092;5.232;2023-03-31T00:06:50;10.50;99.90
17599;DHT22;8918;52.092;5.232;2023-03-31T00:09:19;10.50;99.90
17599;DHT22;8918;52.092;5.232;2023-03-31T00:11:47;10.50;99.90
17599;DHT22;8918;52.092;5.232;2023-03-31T00:14:14;10.50;99.90
17599;DHT22;8918;52.092;5.232;2023-03-31T00:16:41;10.50;99.90
17599;DHT22;8918;52.092;5.232;2023-03-31T00:19:07;10.50;99.90
17599;DHT22;8918;52.092;5.232;2023-03-31T00:21:35;10.50;99.90
17599;DHT22;8918;52.092;5.232;2023-03-31T00:24:09;10.60;99.90
17599;DHT22;8918;52.092;5.232;2023-03-31T00:26:35;10.50;99.90
17599;DHT22;8918;52.092;5.232;2023-03-31T00:29:02;10.50;99.90
17599;DHT22;8918;52.092;5.232;2023-03-31T00:31:28;10.50;99.90
17599;DHT22;8918;52.092;5.232;2023-03-31T00:33:54;10.50;99.90
17599;DHT22;8918;52.092;5.232;2023-03-31T00:36:20;10.60;99.90
17599;DHT22;8918;52.092;5.232;2023-03-31T00:39:01;10.60;99.90
17599;DHT22;8918;52.092;5.232;2023-03-31T00:41:31;10.60;99.90
17599;DHT22;8918;52.092;5.232;2023-03-31T00:44:17;10.60;99.90
17599;DHT22;8918;52.092;5.232;2023-03-31T00:46:55;10.70;99.90
17599;DHT22;8918;52.092;5.232;2023-03-31T00:49:32;10.70;99.90
17599;DHT22;8918;52.092;5.232;2023-03-31T00:54:41;10.70;99.90
17599;DHT22;8918;52.092;5.232;2023-03-31T00:57:09;10.80;99.90
17599;DHT22;8918;52.092;5.232;2023-03-31T00:59:38;10.80;99.90
17599;DHT22;8918;52.092;5.232;2023-03-31T01:02:05;10.80;99.90
17599;DHT22;8918;52.092;5.232;2023-03-31T01:04:38;10.80;99.90
17599;DHT22;8918;52.092;5.232;2023-03-31T01:07:38;10.80;99.90
17599;DHT22;8918;52.092;5.232;2023-03-31T01:10:06;10.80;99.90
17599;DHT22;8918;52.092;5.232;2023-03-31T01:12:33;10.90;99.90
17599;DHT22;8918;52.092;5.232;2023-03-31T01:15:02;10.90;99.90
17599;DHT22;8918;52.092;5.232;2023-03-31T01:17:28;11.00;99.90
17599;DHT22;8918;52.092;5.232;2023-03-31T01:31:55;11.10;99.90
17599;DHT22;8918;52.092;5.232;2023-03-31T01:35:05;11.10;99.90
17599;DHT22;8918;52.092;5.232;2023-03-31T01:43:18;11.10;99.90
17599;DHT22;8918;52.092;5.232;2023-03-31T01:46:18;11.10;99.90
17599;DHT22;8918;52.092;5.232;2023-03-31T01:52:07;11.10;99.90
17599;DHT22;8918;52.092;5.232;2023-03-31T01:54:48;11.00;99.90
17599;DHT22;8918;52.092;5.232;2023-03-31T01:57:23;11.10;99.90
17599;DHT22;8918;52.092;5.232;2023-03-31T02:02:54;11.00;99.90
17599;DHT22;8918;52.092;5.232;2023-03-31T02:05:29;11.00;99.90
17599;DHT22;8918;52.092;5.232;2023-03-31T02:08:01;11.00;99.90
17599;DHT22;8918;52.092;5.232;2023-03-31T02:10:30;11.10;99.90
17599;DHT22;8918;52.092;5.232;2023-03-31T02:12:59;11.10;99.90
17599;DHT22;8918;52.092;5.232;2023-03-31T02:15:29;11.10;99.90
17599;DHT22;8918;52.092;5.232;2023-03-31T02:17:57;11.10;99.90
17599;DHT22;8918;52.092;5.232;2023-03-31T02:20:26;11.10;99.90
17599;DHT22;8918;52.092;5.232;2023-03-31T02:22:54;11.20;99.90
17599;DHT22;8918;52.092;5.232;2023-03-31T02:25:32;11.20;99.90
17599;DHT22;8918;52.092;5.232;2023-03-31T02:28:05;11.20;99.90
17599;DHT22;8918;52.092;5.232;2023-03-31T02:30:41;11.20;99.90
17599;DHT22;8918;52.092;5.232;2023-03-31T02:33:09;11.20;99.90
17599;DHT22;8918;52.092;5.232;2023-03-31T02:35:35;11.20;99.90
17599;DHT22;8918;52.092;5.232;2023-03-31T02:38:01;11.20;99.90
17599;DHT22;8918;52.092;5.232;2023-03-31T02:40:27;11.10;99.90
17599;DHT22;8918;52.092;5.232;2023-03-31T02:42:52;11.10;99.90
17599;DHT22;8918;52.092;5.232;2023-03-31T02:48:35;11.10;99.90
17599;DHT22;8918;52.092;5.232;2023-03-31T03:04:52;10.90;99.90
17599;DHT22;8918;52.092;5.232;2023-03-31T03:15:27;10.80;99.90
17599;DHT22;8918;52.092;5.232;2023-03-31T03:17:56;10.80;99.90
17599;DHT22;8918;52.092;5.232;2023-03-31T03:20:22;10.80;99.90
17599;DHT22;8918;52.092;5.232;2023-03-31T03:22:48;10.80;99.90
17599;DHT22;8918;52.092;5.232;2023-03-31T03:25:15;10.80;99.90
17599;DHT22;8918;52.092;5.232;2023-03-31T03:27:44;10.80;99.90
17599;DHT22;8918;52.092;5.232;2023-03-31T03:30:12;10.80;99.90
17599;DHT22;8918;52.092;5.232;2023-03-31T03:32:38;10.80;99.90
17599;DHT22;8918;52.092;5.232;2023-03-31T03:35:04;10.80;99.90
17599;DHT22;8918;52.092;5.232;2023-03-31T03:37:30;10.80;99.90
17599;DHT22;8918;52.092;5.232;2023-03-31T03:39:56;10.70;99.90
17599;DHT22;8918;52.092;5.232;2023-03-31T03:42:22;10.70;99.90
17599;DHT22;8918;52.092;5.232;2023-03-31T03:44:48;10.70;99.90
17599;DHT22;8918;52.092;5.232;2023-03-31T03:47:14;10.70;99.90
17599;DHT22;8918;52.092;5.232;2023-03-31T03:49:39;10.70;99.90
17599;DHT22;8918;52.092;5.232;2023-03-31T03:52:05;10.70;99.90
17599;DHT22;8918;52.092;5.232;2023-03-31T03:54:31;10.60;99.90
17599;DHT22;8918;52.092;5.232;2023-03-31T03:56:57;10.70;99.90
17599;DHT22;8918;52.092;5.232;2023-03-31T03:59:23;10.60;99.90
17599;DHT22;8918;52.092;5.232;2023-03-31T04:01:49;10.60;99.90
17599;DHT22;8918;52.092;5.232;2023-03-31T04:04:14;10.60;99.90
17599;DHT22;8918;52.092;5.232;2023-03-31T04:06:40;10.50;99.90
17599;DHT22;8918;52.092;5.232;2023-03-31T04:09:06;10.50;99.90
17599;DHT22;8918;52.092;5.232;2023-03-31T04:11:32;10.50;99.90
17599;DHT22;8918;52.092;5.232;2023-03-31T04:13:58;10.40;99.90
17599;DHT22;8918;52.092;5.232;2023-03-31T04:16:23;10.40;99.90
17599;DHT22;8918;52.092;5.232;2023-03-31T04:18:50;10.40;99.90
17599;DHT22;8918;52.092;5.232;2023-03-31T04:21:17;10.40;99.90
17599;DHT22;8918;52.092;5.232;2023-03-31T04:23:51;10.30;99.90
17599;DHT22;8918;52.092;5.232;2023-03-31T04:26:24;10.30;99.90
17599;DHT22;8918;52.092;5.232;2023-03-31T04:28:56;10.30;99.90
17599;DHT22;8918;52.092;5.232;2023-03-31T04:31:25;10.30;99.90
17599;DHT22;8918;52.092;5.232;2023-03-31T04:33:52;10.30;99.90
17599;DHT22;8918;52.092;5.232;2023-03-31T04:36:18;10.30;99.90
17599;DHT22;8918;52.092;5.232;2023-03-31T04:38:47;10.30;99.90
17599;DHT22;8918;52.092;5.232;2023-03-31T04:41:15;10.30;99.90
17599;DHT22;8918;52.092;5.232;2023-03-31T04:43:41;10.40;99.90
17599;DHT22;8918;52.092;5.232;2023-03-31T04:46:07;10.30;99.90
17599;DHT22;8918;52.092;5.232;2023-03-31T04:48:33;10.40;99.90
17599;DHT22;8918;52.092;5.232;2023-03-31T04:50:58;10.40;99.90
17599;DHT22;8918;52.092;5.232;2023-03-31T04:53:24;10.40;99.90
17599;DHT22;8918;52.092;5.232;2023-03-31T04:55:50;10.40;99.90
17599;DHT22;8918;52.092;5.232;2023-03-31T04:58:16;10.50;99.90
17599;DHT22;8918;52.092;5.232;2023-03-31T05:00:42;10.40;99.90
17599;DHT22;8918;52.092;5.232;2023-03-31T05:03:07;10.40;99.90
17599;DHT22;8918;52.092;5.232;2023-03-31T05:05:34;10.50;99.90
17599;DHT22;8918;52.092;5.232;2023-03-31T05:08:00;10.50;99.90
17599;DHT22;8918;52.092;5.232;2023-03-31T05:10:26;10.50;99.90
17599;DHT22;8918;52.092;5.232;2023-03-31T05:12:52;10.50;99.90
17599;DHT22;8918;52.092;5.232;2023-03-31T05:15:17;10.50;99.90
17599;DHT22;8918;52.092;5.232;2023-03-31T05:17:43;10.50;99.90
17599;DHT22;8918;52.092;5.232;2023-03-31T05:20:09;10.50;99.90
17599;DHT22;8918;52.092;5.232;2023-03-31T05:22:37;10.50;99.90
17599;DHT22;8918;52.092;5.232;2023-03-31T05:25:04;10.50;99.90
17599;DHT22;8918;52.092;5.232;2023-03-31T05:27:31;10.50;99.90
17599;DHT22;8918;52.092;5.232;2023-03-31T05:29:56;10.50;99.90
17599;DHT22;8918;52.092;5.232;2023-03-31T05:32:23;10.50;99.90
17599;DHT22;8918;52.092;5.232;2023-03-31T05:34:48;10.50;99.90
17599;DHT22;8918;52.092;5.232;2023-03-31T05:37:17;10.50;99.90
17599;DHT22;8918;52.092;5.232;2023-03-31T05:39:43;10.50;99.90
17599;DHT22;8918;52.092;5.232;2023-03-31T05:42:08;10.50;99.90
17599;DHT22;8918;52.092;5.232;2023-03-31T05:44:34;10.50;99.90
17599;DHT22;8918;52.092;5.232;2023-03-31T05:47:00;10.50;99.90
17599;DHT22;8918;52.092;5.232;2023-03-31T05:49:25;10.50;99.90
17599;DHT22;8918;52.092;5.232;2023-03-31T05:51:51;10.50;99.90
17599;DHT22;8918;52.092;5.232;2023-03-31T05:54:17;10.60;99.90
17599;DHT22;8918;52.092;5.232;2023-03-31T05:56:43;10.60;99.90
17599;DHT22;8918;52.092;5.232;2023-03-31T05:59:09;10.50;99.90
17599;DHT22;8918;52.092;5.232;2023-03-31T06:01:34;10.60;99.90
17599;DHT22;8918;52.092;5.232;2023-03-31T06:04:00;10.60;99.90
17599;DHT22;8918;52.092;5.232;2023-03-31T06:06:26;10.60;99.90
17599;DHT22;8918;52.092;5.232;2023-03-31T06:08:52;10.60;99.90
17599;DHT22;8918;52.092;5.232;2023-03-31T06:11:20;10.60;99.90
17599;DHT22;8918;52.092;5.232;2023-03-31T06:13:47;10.60;99.90
17599;DHT22;8918;52.092;5.232;2023-03-31T06:16:14;10.60;99.90
17599;DHT22;8918;52.092;5.232;2023-03-31T06:18:41;10.60;99.90
17599;DHT22;8918;52.092;5.232;2023-03-31T06:21:12;10.70;99.90
17599;DHT22;8918;52.092;5.232;2023-03-31T06:23:38;10.70;99.90
17599;DHT22;8918;52.092;5.232;2023-03-31T06:26:06;10.70;99.90
17599;DHT22;8918;52.092;5.232;2023-03-31T06:28:33;10.70;99.90
17599;DHT22;8918;52.092;5.232;2023-03-31T06:31:06;10.70;99.90
17599;DHT22;8918;52.092;5.232;2023-03-31T06:33:32;10.70;99.90
17599;DHT22;8918;52.092;5.232;2023-03-31T06:35:58;10.80;99.90
17599;DHT22;8918;52.092;5.232;2023-03-31T06:38:26;10.80;99.90
17599;DHT22;8918;52.092;5.232;2023-03-31T06:40:52;10.80;99.90
17599;DHT22;8918;52.092;5.232;2023-03-31T06:43:18;10.80;99.90
17599;DHT22;8918;52.092;5.232;2023-03-31T06:45:45;10.80;99.90
17599;DHT22;8918;52.092;5.232;2023-03-31T06:48:11;10.80;99.90
17599;DHT22;8918;52.092;5.232;2023-03-31T06:50:37;10.90;99.90
17599;DHT22;8918;52.092;5.232;2023-03-31T06:53:03;10.90;99.90
17599;DHT22;8918;52.092;5.232;2023-03-31T06:55:29;10.90;99.90
17599;DHT22;8918;52.092;5.232;2023-03-31T06:57:55;10.80;99.90
17599;DHT22;8918;52.092;5.232;2023-03-31T07:00:21;10.80;99.90
17599;DHT22;8918;52.092;5.232;2023-03-31T07:02:46;10.80;99.90
17599;DHT22;8918;52.092;5.232;2023-03-31T07:05:12;10.80;99.90
17599;DHT22;8918;52.092;5.232;2023-03-31T07:07:37;10.80;99.90
17599;DHT22;8918;52.092;5.232;2023-03-31T07:10:03;10.80;99.90
17599;DHT22;8918;52.092;5.232;2023-03-31T07:12:32;10.80;99.90
17599;DHT22;8918;52.092;5.232;2023-03-31T07:14:58;10.80;99.90
17599;DHT22;8918;52.092;5.232;2023-03-31T07:17:23;10.80;99.90
17599;DHT22;8918;52.092;5.232;2023-03-31T07:19:50;10.80;99.90
17599;DHT22;8918;52.092;5.232;2023-03-31T07:22:18;10.70;99.90
17599;DHT22;8918;52.092;5.232;2023-03-31T07:24:43;10.70;99.90
17599;DHT22;8918;52.092;5.232;2023-03-31T07:27:09;10.70;99.90
17599;DHT22;8918;52.092;5.232;2023-03-31T07:29:35;10.70;99.90
17599;DHT22;8918;52.092;5.232;2023-03-31T07:32:00;10.70;99.90
17599;DHT22;8918;52.092;5.232;2023-03-31T07:34:26;10.70;99.90
17599;DHT22;8918;52.092;5.232;2023-03-31T07:36:54;10.80;99.90
17599;DHT22;8918;52.092;5.232;2023-03-31T07:39:20;10.80;99.90
17599;DHT22;8918;52.092;5.232;2023-03-31T07:41:46;10.80;99.90
17599;DHT22;8918;52.092;5.232;2023-03-31T07:44:12;10.90;99.90
17599;DHT22;8918;52.092;5.232;2023-03-31T07:46:38;10.90;99.90
17599;DHT22;8918;52.092;5.232;2023-03-31T07:49:04;10.90;99.90
17599;DHT22;8918;52.092;5.232;2023-03-31T07:51:31;10.90;99.90
17599;DHT22;8918;52.092;5.232;2023-03-31T07:53:57;10.90;99.90
17599;DHT22;8918;52.092;5.232;2023-03-31T07:56:23;10.90;99.90
17599;DHT22;8918;52.092;5.232;2023-03-31T07:58:49;10.90;99.90
17599;DHT22;8918;52.092;5.232;2023-03-31T08:01:19;10.90;99.90
17599;DHT22;8918;52.092;5.232;2023-03-31T08:03:47;10.90;99.90
17599;DHT22;8918;52.092;5.232;2023-03-31T08:06:20;10.90;99.90
17599;DHT22;8918;52.092;5.232;2023-03-31T08:08:47;11.00;99.90
17599;DHT22;8918;52.092;5.232;2023-03-31T08:11:13;11.10;99.90
17599;DHT22;8918;52.092;5.232;2023-03-31T08:13:38;11.20;99.90
17599;DHT22;8918;52.092;5.232;2023-03-31T08:16:04;11.30;99.90
17599;DHT22;8918;52.092;5.232;2023-03-31T08:18:30;11.30;99.90
17599;DHT22;8918;52.092;5.232;2023-03-31T08:20:55;11.30;99.90
17599;DHT22;8918;52.092;5.232;2023-03-31T08:23:21;11.30;99.90
17599;DHT22;8918;52.092;5.232;2023-03-31T08:25:46;11.20;99.90
17599;DHT22;8918;52.092;5.232;2023-03-31T08:28:12;11.20;99.90
17599;DHT22;8918;52.092;5.232;2023-03-31T08:30:42;11.30;99.90
17599;DHT22;8918;52.092;5.232;2023-03-31T08:33:08;11.30;99.90
17599;DHT22;8918;52.092;5.232;2023-03-31T08:35:34;11.30;99.90
17599;DHT22;8918;52.092;5.232;2023-03-31T08:37:59;11.30;99.90
17599;DHT22;8918;52.092;5.232;2023-03-31T08:40:27;11.30;99.90
17599;DHT22;8918;52.092;5.232;2023-03-31T08:43:03;11.20;99.90
17599;DHT22;8918;52.092;5.232;2023-03-31T08:45:34;11.30;99.90
17599;DHT22;8918;52.092;5.232;2023-03-31T08:48:08;11.40;99.90
17599;DHT22;8918;52.092;5.232;2023-03-31T08:50:44;11.40;99.90
17599;DHT22;8918;52.092;5.232;2023-03-31T08:53:20;11.50;99.90
17599;DHT22;8918;52.092;5.232;2023-03-31T08:55:48;11.60;99.90
17599;DHT22;8918;52.092;5.232;2023-03-31T08:58:28;11.60;99.90
17599;DHT22;8918;52.092;5.232;2023-03-31T09:01:14;11.60;99.90
17599;DHT22;8918;52.092;5.232;2023-03-31T09:06:37;11.70;99.90
17599;DHT22;8918;52.092;5.232;2023-03-31T09:09:09;11.80;99.90
17599;DHT22;8918;52.092;5.232;2023-03-31T09:11:39;11.80;99.90
17599;DHT22;8918;52.092;5.232;2023-03-31T09:14:29;11.90;99.90
17599;DHT22;8918;52.092;5.232;2023-03-31T09:17:14;12.00;99.90
17599;DHT22;8918;52.092;5.232;2023-03-31T09:22:25;12.20;99.90
17599;DHT22;8918;52.092;5.232;2023-03-31T09:25:00;12.30;99.90
17599;DHT22;8918;52.092;5.232;2023-03-31T09:27:29;12.40;99.90
17599;DHT22;8918;52.092;5.232;2023-03-31T09:32:36;12.60;99.90
17599;DHT22;8918;52.092;5.232;2023-03-31T09:35:19;12.60;99.90
17599;DHT22;8918;52.092;5.232;2023-03-31T09:37:50;12.60;99.90
17599;DHT22;8918;52.092;5.232;2023-03-31T09:40:24;12.60;99.90
17599;DHT22;8918;52.092;5.232;2023-03-31T09:43:00;12.60;99.90
17599;DHT22;8918;52.092;5.232;2023-03-31T09:45:27;12.70;99.90
17599;DHT22;8918;52.092;5.232;2023-03-31T09:47:54;12.80;99.90
17599;DHT22;8918;52.092;5.232;2023-03-31T09:50:22;12.80;99.90
17599;DHT22;8918;52.092;5.232;2023-03-31T09:52:56;12.80;99.90
17599;DHT22;8918;52.092;5.232;2023-03-31T09:55:36;12.90;99.90
17599;DHT22;8918;52.092;5.232;2023-03-31T09:58:06;13.10;99.90
17599;DHT22;8918;52.092;5.232;2023-03-31T10:00:32;13.10;99.90
17599;DHT22;8918;52.092;5.232;2023-03-31T10:03:02;13.10;99.90
17599;DHT22;8918;52.092;5.232;2023-03-31T10:05:38;13.10;99.90
17599;DHT22;8918;52.092;5.232;2023-03-31T10:13:27;13.20;99.90
17599;DHT22;8918;52.092;5.232;2023-03-31T10:16:08;13.20;99.90
17599;DHT22;8918;52.092;5.232;2023-03-31T10:18:39;13.20;99.90
17599;DHT22;8918;52.092;5.232;2023-03-31T10:21:14;13.20;99.90
17599;DHT22;8918;52.092;5.232;2023-03-31T10:23:46;13.20;99.90
17599;DHT22;8918;52.092;5.232;2023-03-31T10:26:17;13.20;99.90
17599;DHT22;8918;52.092;5.232;2023-03-31T10:28:44;13.30;99.90
17599;DHT22;8918;52.092;5.232;2023-03-31T10:31:10;13.40;99.90
17599;DHT22;8918;52.092;5.232;2023-03-31T10:33:41;13.60;99.90
17599;DHT22;8918;52.092;5.232;2023-03-31T10:36:29;13.80;99.90
17599;DHT22;8918;52.092;5.232;2023-03-31T10:38:56;14.00;99.90
17599;DHT22;8918;52.092;5.232;2023-03-31T10:41:27;13.90;99.90
17599;DHT22;8918;52.092;5.232;2023-03-31T10:43:56;13.80;99.90
17599;DHT22;8918;52.092;5.232;2023-03-31T10:46:46;13.70;99.90
17599;DHT22;8918;52.092;5.232;2023-03-31T10:49:26;13.50;99.90
17599;DHT22;8918;52.092;5.232;2023-03-31T10:51:53;13.40;99.90
17599;DHT22;8918;52.092;5.232;2023-03-31T10:54:19;13.40;99.90
17599;DHT22;8918;52.092;5.232;2023-03-31T10:56:48;13.50;99.90
17599;DHT22;8918;52.092;5.232;2023-03-31T11:20:23;12.80;99.90
17599;DHT22;8918;52.092;5.232;2023-03-31T11:26:08;12.70;99.90
17599;DHT22;8918;52.092;5.232;2023-03-31T11:28:43;12.60;99.90
17599;DHT22;8918;52.092;5.232;2023-03-31T11:34:10;12.50;99.90
17599;DHT22;8918;52.092;5.232;2023-03-31T11:36:55;12.40;99.90
17599;DHT22;8918;52.092;5.232;2023-03-31T11:42:15;12.40;99.90
17599;DHT22;8918;52.092;5.232;2023-03-31T11:44:47;12.40;99.90
17599;DHT22;8918;52.092;5.232;2023-03-31T11:47:27;12.40;99.90
17599;DHT22;8918;52.092;5.232;2023-03-31T11:50:03;12.40;99.90
17599;DHT22;8918;52.092;5.232;2023-03-31T11:52:39;12.40;99.90
17599;DHT22;8918;52.092;5.232;2023-03-31T11:55:20;12.30;99.90
17599;DHT22;8918;52.092;5.232;2023-03-31T11:58:01;12.20;99.90
17599;DHT22;8918;52.092;5.232;2023-03-31T12:00:35;12.20;99.90
17599;DHT22;8918;52.092;5.232;2023-03-31T12:03:22;12.10;99.90
17599;DHT22;8918;52.092;5.232;2023-03-31T12:05:54;12.20;99.90
17599;DHT22;8918;52.092;5.232;2023-03-31T12:08:39;12.30;99.90
17599;DHT22;8918;52.092;5.232;2023-03-31T12:11:14;12.40;99.90
17599;DHT22;8918;52.092;5.232;2023-03-31T12:19:11;12.40;99.90
17599;DHT22;8918;52.092;5.232;2023-03-31T12:21:43;12.40;99.90
17599;DHT22;8918;52.092;5.232;2023-03-31T12:24:12;12.40;99.90
17599;DHT22;8918;52.092;5.232;2023-03-31T12:30:13;12.50;99.90
17599;DHT22;8918;52.092;5.232;2023-03-31T12:32:22;12.70;99.90
17599;DHT22;8918;52.092;5.232;2023-03-31T12:34:58;12.70;99.90
17599;DHT22;8918;52.092;5.232;2023-03-31T12:43:39;12.90;99.90
17599;DHT22;8918;52.092;5.232;2023-03-31T12:52:03;12.90;99.90
17599;DHT22;8918;52.092;5.232;2023-03-31T12:54:40;12.90;99.90
17599;DHT22;8918;52.092;5.232;2023-03-31T12:59:36;12.80;99.90
17599;DHT22;8918;52.092;5.232;2023-03-31T13:04:40;12.80;99.90
17599;DHT22;8918;52.092;5.232;2023-03-31T13:07:36;12.70;99.90
17599;DHT22;8918;52.092;5.232;2023-03-31T13:15:31;12.60;99.90
17599;DHT22;8918;52.092;5.232;2023-03-31T13:17:59;12.40;99.90
17599;DHT22;8918;52.092;5.232;2023-03-31T13:23:01;12.20;99.90
17599;DHT22;8918;52.092;5.232;2023-03-31T13:25:34;12.10;99.90
17599;DHT22;8918;52.092;5.232;2023-03-31T13:28:17;12.00;99.90
17599;DHT22;8918;52.092;5.232;2023-03-31T13:33:14;11.90;99.90
17599;DHT22;8918;52.092;5.232;2023-03-31T13:35:45;11.80;99.90
17599;DHT22;8918;52.092;5.232;2023-03-31T13:38:34;11.80;99.90
17599;DHT22;8918;52.092;5.232;2023-03-31T13:44:08;11.90;99.90
17599;DHT22;8918;52.092;5.232;2023-03-31T13:46:55;12.10;99.90
17599;DHT22;8918;52.092;5.232;2023-03-31T13:49:41;12.20;99.90
17599;DHT22;8918;52.092;5.232;2023-03-31T13:52:10;12.30;99.90
17599;DHT22;8918;52.092;5.232;2023-03-31T14:00:41;12.60;99.90
17599;DHT22;8918;52.092;5.232;2023-03-31T14:05:58;12.40;99.90
17599;DHT22;8918;52.092;5.232;2023-03-31T14:08:41;12.40;99.90
17599;DHT22;8918;52.092;5.232;2023-03-31T14:13:42;12.30;99.90
17599;DHT22;8918;52.092;5.232;2023-03-31T14:16:08;12.30;99.90
17599;DHT22;8918;52.092;5.232;2023-03-31T14:18:37;12.30;99.90
17599;DHT22;8918;52.092;5.232;2023-03-31T14:21:14;12.30;99.90
17599;DHT22;8918;52.092;5.232;2023-03-31T14:29:23;12.20;99.90
17599;DHT22;8918;52.092;5.232;2023-03-31T14:32:16;12.20;99.90
17599;DHT22;8918;52.092;5.232;2023-03-31T14:37:28;12.00;99.90
17599;DHT22;8918;52.092;5.232;2023-03-31T14:39:56;11.90;99.90
17599;DHT22;8918;52.092;5.232;2023-03-31T14:42:35;11.80;99.90
17599;DHT22;8918;52.092;5.232;2023-03-31T14:45:05;11.80;99.90
17599;DHT22;8918;52.092;5.232;2023-03-31T14:47:34;11.90;99.90
17599;DHT22;8918;52.092;5.232;2023-03-31T14:50:13;11.90;99.90
17599;DHT22;8918;52.092;5.232;2023-03-31T14:52:40;12.00;99.90
17599;DHT22;8918;52.092;5.232;2023-03-31T14:55:14;12.10;99.90
17599;DHT22;8918;52.092;5.232;2023-03-31T14:57:40;12.20;99.90
17599;DHT22;8918;52.092;5.232;2023-03-31T15:00:10;12.20;99.90
17599;DHT22;8918;52.092;5.232;2023-03-31T15:02:40;12.10;99.90
17599;DHT22;8918;52.092;5.232;2023-03-31T15:05:28;12.10;99.90
17599;DHT22;8918;52.092;5.232;2023-03-31T15:08:06;12.00;99.90
17599;DHT22;8918;52.092;5.232;2023-03-31T15:10:36;11.90;99.90
17599;DHT22;8918;52.092;5.232;2023-03-31T15:13:09;11.90;99.90
17599;DHT22;8918;52.092;5.232;2023-03-31T15:15:35;11.90;99.90
17599;DHT22;8918;52.092;5.232;2023-03-31T15:18:01;11.90;99.90
17599;DHT22;8918;52.092;5.232;2023-03-31T15:20:38;11.90;99.90
17599;DHT22;8918;52.092;5.232;2023-03-31T15:25:54;11.80;99.90
17599;DHT22;8918;52.092;5.232;2023-03-31T15:28:20;11.80;99.90
17599;DHT22;8918;52.092;5.232;2023-03-31T15:30:48;11.70;99.90
17599;DHT22;8918;52.092;5.232;2023-03-31T15:33:22;11.70;99.90
17599;DHT22;8918;52.092;5.232;2023-03-31T15:35:49;11.60;99.90
17599;DHT22;8918;52.092;5.232;2023-03-31T15:38:15;11.60;99.90
17599;DHT22;8918;52.092;5.232;2023-03-31T15:40:43;11.60;99.90
17599;DHT22;8918;52.092;5.232;2023-03-31T15:43:18;11.60;99.90
17599;DHT22;8918;52.092;5.232;2023-03-31T15:45:53;11.60;99.90
17599;DHT22;8918;52.092;5.232;2023-03-31T15:48:32;11.60;99.90
17599;DHT22;8918;52.092;5.232;2023-03-31T15:53:49;11.50;99.90
17599;DHT22;8918;52.092;5.232;2023-03-31T15:59:01;11.40;99.90
17599;DHT22;8918;52.092;5.232;2023-03-31T16:01:32;11.40;99.90
17599;DHT22;8918;52.092;5.232;2023-03-31T16:04:00;11.30;99.90
17599;DHT22;8918;52.092;5.232;2023-03-31T16:07:03;11.30;99.90
17599;DHT22;8918;52.092;5.232;2023-03-31T16:09:42;11.30;99.90
17599;DHT22;8918;52.092;5.232;2023-03-31T16:12:22;11.20;99.90
17599;DHT22;8918;52.092;5.232;2023-03-31T16:14:58;11.20;99.90
17599;DHT22;8918;52.092;5.232;2023-03-31T16:17:30;11.10;99.90
17599;DHT22;8918;52.092;5.232;2023-03-31T16:20:03;11.00;99.90
17599;DHT22;8918;52.092;5.232;2023-03-31T16:22:42;11.00;99.90
17599;DHT22;8918;52.092;5.232;2023-03-31T16:25:15;11.00;99.90
17599;DHT22;8918;52.092;5.232;2023-03-31T16:27:44;10.90;99.90
17599;DHT22;8918;52.092;5.232;2023-03-31T16:30:16;10.90;99.90
17599;DHT22;8918;52.092;5.232;2023-03-31T16:35:41;11.00;99.90
17599;DHT22;8918;52.092;5.232;2023-03-31T16:38:08;11.00;99.90
17599;DHT22;8918;52.092;5.232;2023-03-31T16:40:45;11.00;99.90
17599;DHT22;8918;52.092;5.232;2023-03-31T16:43:13;11.00;99.90
17599;DHT22;8918;52.092;5.232;2023-03-31T16:45:42;11.00;99.90
17599;DHT22;8918;52.092;5.232;2023-03-31T16:48:08;11.00;99.90
17599;DHT22;8918;52.092;5.232;2023-03-31T16:50:33;11.00;99.90
17599;DHT22;8918;52.092;5.232;2023-03-31T16:53:00;10.90;99.90
17599;DHT22;8918;52.092;5.232;2023-03-31T16:55:25;10.90;99.90
17599;DHT22;8918;52.092;5.232;2023-03-31T16:57:51;10.80;99.90
17599;DHT22;8918;52.092;5.232;2023-03-31T17:00:18;10.80;99.90
17599;DHT22;8918;52.092;5.232;2023-03-31T17:02:44;10.70;99.90
17599;DHT22;8918;52.092;5.232;2023-03-31T17:05:10;10.70;99.90
17599;DHT22;8918;52.092;5.232;2023-03-31T17:07:36;10.70;99.90
17599;DHT22;8918;52.092;5.232;2023-03-31T17:10:01;10.70;99.90
17599;DHT22;8918;52.092;5.232;2023-03-31T17:12:27;10.70;99.90
17599;DHT22;8918;52.092;5.232;2023-03-31T17:14:53;10.70;99.90
17599;DHT22;8918;52.092;5.232;2023-03-31T17:17:18;10.70;99.90
17599;DHT22;8918;52.092;5.232;2023-03-31T17:19:44;10.60;99.90
17599;DHT22;8918;52.092;5.232;2023-03-31T17:22:10;10.70;99.90
17599;DHT22;8918;52.092;5.232;2023-03-31T17:24:36;10.70;99.90
17599;DHT22;8918;52.092;5.232;2023-03-31T17:27:01;10.70;99.90
17599;DHT22;8918;52.092;5.232;2023-03-31T17:29:27;10.70;99.90
17599;DHT22;8918;52.092;5.232;2023-03-31T17:31:53;10.70;99.90
17599;DHT22;8918;52.092;5.232;2023-03-31T17:34:19;10.60;99.90
17599;DHT22;8918;52.092;5.232;2023-03-31T17:36:45;10.70;99.90
17599;DHT22;8918;52.092;5.232;2023-03-31T17:39:11;10.60;99.90
17599;DHT22;8918;52.092;5.232;2023-03-31T17:41:37;10.60;99.90
17599;DHT22;8918;52.092;5.232;2023-03-31T17:44:02;10.60;99.90
17599;DHT22;8918;52.092;5.232;2023-03-31T17:46:29;10.60;99.90
17599;DHT22;8918;52.092;5.232;2023-03-31T17:48:55;10.60;99.90
17599;DHT22;8918;52.092;5.232;2023-03-31T17:51:22;10.60;99.90
17599;DHT22;8918;52.092;5.232;2023-03-31T17:53:48;10.60;99.90
17599;DHT22;8918;52.092;5.232;2023-03-31T17:56:15;10.60;99.90
17599;DHT22;8918;52.092;5.232;2023-03-31T17:58:41;10.50;99.90
17599;DHT22;8918;52.092;5.232;2023-03-31T18:01:09;10.50;99.90
17599;DHT22;8918;52.092;5.232;2023-03-31T18:03:36;10.50;99.90
17599;DHT22;8918;52.092;5.232;2023-03-31T18:06:11;10.50;99.90
17599;DHT22;8918;52.092;5.232;2023-03-31T18:08:39;10.50;99.90
17599;DHT22;8918;52.092;5.232;2023-03-31T18:11:05;10.50;99.90
17599;DHT22;8918;52.092;5.232;2023-03-31T18:13:34;10.50;99.90
17599;DHT22;8918;52.092;5.232;2023-03-31T18:16:00;10.50;99.90
17599;DHT22;8918;52.092;5.232;2023-03-31T18:18:27;10.60;99.90
17599;DHT22;8918;52.092;5.232;2023-03-31T18:20:53;10.50;99.90
17599;DHT22;8918;52.092;5.232;2023-03-31T18:23:19;10.50;99.90
17599;DHT22;8918;52.092;5.232;2023-03-31T18:25:45;10.50;99.90
17599;DHT22;8918;52.092;5.232;2023-03-31T18:28:12;10.50;99.90
17599;DHT22;8918;52.092;5.232;2023-03-31T18:30:38;10.50;99.90
17599;DHT22;8918;52.092;5.232;2023-03-31T18:33:04;10.50;99.90
17599;DHT22;8918;52.092;5.232;2023-03-31T18:35:29;10.50;99.90
17599;DHT22;8918;52.092;5.232;2023-03-31T18:37:55;10.50;99.90
17599;DHT22;8918;52.092;5.232;2023-03-31T18:40:21;10.50;99.90
17599;DHT22;8918;52.092;5.232;2023-03-31T18:42:48;10.50;99.90
17599;DHT22;8918;52.092;5.232;2023-03-31T18:45:15;10.60;99.90
17599;DHT22;8918;52.092;5.232;2023-03-31T18:47:41;10.60;99.90